Time;durP1;ratioP1;P1;durP2;ratioP2;P2;SDS_P1;SDS_P2;PMS_P1;PMS_P2;Temp;Humidity;BMP_temperature;BMP_pressure;BME280_temperature;BME280_humidity;BME280_pressure;Samples;Min_cycle;Max_cycle;Signal;HPM_P1;HPM_P2
2023/08/04 00:01:24;;;;;;;11.00;10.60;;;13.90;99.90;;;;;;5107158;28;20451;-69
2023/08/04 00:03:53;;;;;;;11.50;11.10;;;14.00;99.90;;;;;;5094525;28;20470;-68
2023/08/04 00:06:21;;;;;;;11.40;11.00;;;14.00;99.90;;;;;;5089651;28;20474;-67
2023/08/04 00:08:48;;;;;;;11.57;11.17;;;14.00;99.90;;;;;;5092770;28;20461;-67
2023/08/04 00:11:17;;;;;;;10.80;10.40;;;14.00;99.90;;;;;;5101920;28;20461;-67
2023/08/04 00:13:44;;;;;;;11.07;10.67;;;14.00;99.90;;;;;;5097190;28;20451;-69
2023/08/04 00:16:11;;;;;;;10.93;10.53;;;14.10;99.90;;;;;;5090409;28;20490;-68
2023/08/04 00:18:38;;;;;;;11.30;10.90;;;14.10;99.90;;;;;;5093357;28;20462;-67
2023/08/04 00:21:07;;;;;;;11.10;10.70;;;14.20;99.90;;;;;;5088258;28;20466;-69
2023/08/04 00:23:33;;;;;;;11.50;11.10;;;14.20;99.90;;;;;;5094733;28;20594;-68
2023/08/04 00:26:00;;;;;;;10.60;10.20;;;14.20;99.90;;;;;;5098891;28;21538;-68
2023/08/04 00:28:27;;;;;;;10.73;10.33;;;14.30;99.90;;;;;;5089432;28;20500;-67
2023/08/04 00:30:55;;;;;;;10.07;9.77;;;14.30;99.90;;;;;;5092113;28;20466;-67
2023/08/04 00:33:22;;;;;;;9.63;9.33;;;14.30;99.90;;;;;;5098397;28;20503;-69
2023/08/04 00:35:49;;;;;;;10.50;10.10;;;14.40;99.90;;;;;;5095524;28;20949;-67
2023/08/04 00:38:18;;;;;;;9.63;9.33;;;14.40;99.90;;;;;;5102478;28;20457;-67
2023/08/04 00:40:44;;;;;;;10.53;10.13;;;14.40;99.90;;;;;;5096734;28;20466;-68
2023/08/04 00:43:12;;;;;;;9.80;9.50;;;14.40;99.90;;;;;;5089624;28;20465;-68
2023/08/04 00:45:39;;;;;;;10.37;9.97;;;14.40;99.90;;;;;;5093360;28;20807;-69
2023/08/04 00:48:06;;;;;;;9.87;9.57;;;14.40;99.90;;;;;;5094601;28;20497;-69
2023/08/04 00:50:35;;;;;;;10.07;9.77;;;14.50;99.90;;;;;;5087262;28;20465;-68
2023/08/04 00:53:02;;;;;;;10.10;9.80;;;14.50;99.90;;;;;;5098236;28;20488;-68
2023/08/04 00:55:33;;;;;;;10.00;9.70;;;14.40;99.90;;;;;;5103154;28;20457;-69
2023/08/04 00:58:00;;;;;;;10.30;9.90;;;14.40;99.90;;;;;;5098038;28;20456;-68
2023/08/04 01:00:27;;;;;;;10.13;9.83;;;14.40;99.90;;;;;;5091255;28;20457;-68
2023/08/04 01:02:55;;;;;;;10.40;10.00;;;14.40;99.90;;;;;;5088951;28;20454;-69
2023/08/04 01:05:27;;;;;;;9.60;9.30;;;14.40;99.90;;;;;;5094576;28;20454;-68
2023/08/04 01:08:00;;;;;;;9.33;9.03;;;14.30;99.90;;;;;;5096027;28;20476;-67
2023/08/04 01:10:32;;;;;;;10.40;10.00;;;14.30;99.90;;;;;;5095895;28;20468;-68
2023/08/04 01:13:04;;;;;;;9.63;9.33;;;14.30;99.90;;;;;;5096425;28;20547;-67
2023/08/04 01:15:33;;;;;;;10.83;10.43;;;14.30;99.90;;;;;;5093152;28;20481;-68
2023/08/04 01:18:00;;;;;;;10.77;10.37;;;14.40;99.90;;;;;;5102225;28;20507;-69
2023/08/04 01:20:28;;;;;;;10.83;10.43;;;14.30;99.90;;;;;;5095238;28;20780;-67
2023/08/04 01:22:56;;;;;;;9.90;9.60;;;14.40;99.90;;;;;;5101550;28;20469;-67
2023/08/04 01:25:28;;;;;;;9.83;9.43;;;14.30;99.90;;;;;;5092412;28;20667;-68
2023/08/04 01:27:59;;;;;;;9.67;9.33;;;14.40;99.90;;;;;;5100166;28;20485;-68
2023/08/04 01:30:28;;;;;;;9.90;8.97;;;14.40;99.90;;;;;;5101980;28;20523;-67
2023/08/04 01:32:55;;;;;;;8.60;8.30;;;14.30;99.90;;;;;;5100235;28;20461;-69
2023/08/04 01:35:22;;;;;;;9.17;8.87;;;14.30;99.90;;;;;;5099814;28;20460;-68
2023/08/04 01:37:48;;;;;;;9.73;9.40;;;14.30;99.90;;;;;;5101973;27;20465;-67
2023/08/04 01:40:17;;;;;;;8.40;8.10;;;14.30;99.90;;;;;;5105357;28;20990;-68
2023/08/04 01:42:45;;;;;;;9.70;9.30;;;14.40;99.90;;;;;;5098751;28;20463;-68
2023/08/04 01:45:12;;;;;;;10.50;9.60;;;14.40;99.90;;;;;;5104075;27;20493;-67
2023/08/04 01:47:40;;;;;;;9.07;8.67;;;14.40;99.90;;;;;;5090972;28;20498;-69
2023/08/04 01:50:09;;;;;;;8.70;8.40;;;14.40;99.90;;;;;;5101274;28;20476;-69
2023/08/04 01:52:37;;;;;;;9.20;8.70;;;14.40;99.90;;;;;;5103982;28;20457;-68
2023/08/04 01:55:04;;;;;;;9.67;9.27;;;14.40;99.90;;;;;;5095989;28;20457;-68
2023/08/04 01:57:33;;;;;;;8.57;8.27;;;14.40;99.90;;;;;;5091026;28;20469;-68
2023/08/04 02:00:00;;;;;;;8.90;8.60;;;14.40;99.90;;;;;;5091011;28;20886;-67
2023/08/04 02:02:28;;;;;;;9.00;8.70;;;14.40;99.90;;;;;;5098085;28;20450;-69
2023/08/04 02:04:55;;;;;;;10.30;9.73;;;14.40;99.90;;;;;;5093151;28;20890;-69
2023/08/04 02:07:23;;;;;;;8.77;8.47;;;14.40;99.90;;;;;;5097369;28;20481;-68
2023/08/04 02:09:52;;;;;;;9.63;9.10;;;14.40;99.90;;;;;;5096921;28;20483;-69
2023/08/04 02:12:19;;;;;;;8.20;7.90;;;14.40;99.90;;;;;;5093197;28;20478;-68
2023/08/04 02:14:48;;;;;;;9.07;8.73;;;14.40;99.90;;;;;;5096674;28;20461;-69
2023/08/04 02:17:17;;;;;;;9.80;9.20;;;14.50;99.90;;;;;;5100499;28;20481;-69
2023/08/04 02:19:46;;;;;;;8.33;8.03;;;14.50;99.90;;;;;;5102305;28;21255;-68
2023/08/04 02:22:13;;;;;;;9.00;8.70;;;14.50;99.90;;;;;;5092017;28;20454;-69
2023/08/04 02:24:40;;;;;;;8.30;8.00;;;14.50;99.90;;;;;;5091865;28;20477;-69
2023/08/04 02:27:09;;;;;;;7.60;7.40;;;14.50;99.90;;;;;;5103652;28;20462;-69
2023/08/04 02:29:35;;;;;;;7.50;7.30;;;14.40;99.90;;;;;;5095687;28;20461;-69
2023/08/04 02:32:05;;;;;;;8.63;8.33;;;14.50;99.90;;;;;;5096001;28;20466;-68
2023/08/04 02:34:33;;;;;;;7.60;7.30;;;14.50;99.90;;;;;;5099316;28;20487;-69
2023/08/04 02:37:00;;;;;;;8.83;8.53;;;14.50;99.90;;;;;;5097232;28;20446;-68
2023/08/04 02:39:28;;;;;;;7.10;6.90;;;14.50;99.90;;;;;;5097235;28;20883;-68
2023/08/04 02:41:57;;;;;;;7.53;7.23;;;14.50;99.90;;;;;;5101099;28;20468;-69
2023/08/04 02:44:25;;;;;;;6.83;6.63;;;14.50;99.90;;;;;;5093395;28;20459;-67
2023/08/04 02:46:52;;;;;;;7.47;7.17;;;14.50;99.90;;;;;;5095103;28;20972;-68
2023/08/04 02:49:22;;;;;;;7.53;7.33;;;14.50;99.90;;;;;;5097246;28;20564;-68
2023/08/04 02:51:49;;;;;;;6.83;6.63;;;14.50;99.90;;;;;;5103730;28;20462;-68
2023/08/04 02:54:16;;;;;;;7.10;6.90;;;14.50;99.90;;;;;;5089724;28;20462;-68
2023/08/04 02:56:43;;;;;;;7.03;6.83;;;14.50;99.90;;;;;;5089862;28;20454;-68
2023/08/04 02:59:09;;;;;;;6.63;6.43;;;14.60;99.90;;;;;;5105976;28;20468;-69
2023/08/04 03:01:37;;;;;;;6.03;5.83;;;14.60;99.90;;;;;;5097735;28;20450;-69
2023/08/04 03:04:04;;;;;;;6.30;6.10;;;14.50;99.90;;;;;;5090072;28;20489;-67
2023/08/04 03:06:32;;;;;;;6.67;6.47;;;14.50;99.90;;;;;;5091146;28;20486;-69
2023/08/04 03:08:59;;;;;;;7.07;6.77;;;14.60;99.90;;;;;;5098645;28;20521;-68
2023/08/04 03:11:27;;;;;;;6.43;6.23;;;14.50;99.90;;;;;;5097386;28;20648;-67
2023/08/04 03:13:56;;;;;;;7.30;7.00;;;14.50;99.90;;;;;;5100433;28;20552;-67
2023/08/04 03:16:23;;;;;;;6.03;5.83;;;14.50;99.90;;;;;;5098453;28;20779;-67
2023/08/04 03:18:51;;;;;;;5.67;5.47;;;14.50;99.90;;;;;;5104744;28;20469;-69
2023/08/04 03:21:18;;;;;;;5.70;5.53;;;14.50;99.90;;;;;;5102764;28;20509;-68
2023/08/04 03:23:46;;;;;;;7.10;6.70;;;14.50;99.90;;;;;;5093744;28;20565;-69
2023/08/04 03:26:13;;;;;;;4.47;4.37;;;14.50;99.90;;;;;;5089517;28;20485;-68
2023/08/04 03:28:39;;;;;;;6.77;6.57;;;14.50;99.90;;;;;;5088635;28;20494;-69
2023/08/04 03:31:07;;;;;;;4.67;4.57;;;14.40;99.90;;;;;;5099783;28;20469;-68
2023/08/04 03:33:34;;;;;;;4.70;4.60;;;14.40;99.90;;;;;;5102433;28;20468;-69
2023/08/04 03:36:01;;;;;;;5.63;5.37;;;14.50;99.90;;;;;;5092282;28;20980;-69
2023/08/04 03:38:28;;;;;;;5.80;5.50;;;14.50;99.90;;;;;;5087243;28;20462;-69
2023/08/04 03:40:56;;;;;;;4.67;4.57;;;14.50;99.90;;;;;;5095743;28;20461;-69
2023/08/04 03:43:23;;;;;;;4.90;4.80;;;14.50;99.90;;;;;;5088307;28;20965;-68
2023/08/04 03:45:51;;;;;;;4.90;4.80;;;14.50;99.90;;;;;;5089226;28;20458;-69
2023/08/04 03:48:18;;;;;;;4.80;4.70;;;14.50;99.90;;;;;;5099764;28;20566;-69
2023/08/04 03:50:45;;;;;;;4.90;4.80;;;14.50;99.90;;;;;;5092073;27;20458;-67
2023/08/04 03:53:13;;;;;;;5.87;5.67;;;14.50;99.90;;;;;;5097497;28;20461;-69
2023/08/04 03:55:39;;;;;;;5.37;5.27;;;14.50;99.90;;;;;;5091959;28;20473;-69
2023/08/04 03:58:08;;;;;;;5.30;5.20;;;14.50;99.90;;;;;;5088398;28;20474;-69
2023/08/04 04:00:35;;;;;;;5.90;5.70;;;14.50;99.90;;;;;;5095424;28;20511;-68
2023/08/04 04:03:01;;;;;;;6.40;6.20;;;14.50;99.90;;;;;;5096521;28;20797;-69
2023/08/04 04:05:28;;;;;;;5.50;5.40;;;14.50;99.90;;;;;;5093611;28;20460;-69
2023/08/04 04:07:55;;;;;;;6.10;5.90;;;14.50;99.90;;;;;;5090577;28;20474;-69
2023/08/04 04:10:22;;;;;;;6.63;6.43;;;14.50;99.90;;;;;;5093237;28;20981;-69
2023/08/04 04:12:49;;;;;;;6.50;6.20;;;14.50;99.90;;;;;;5090569;28;20472;-68
2023/08/04 04:15:18;;;;;;;5.30;5.20;;;14.50;99.90;;;;;;5091941;28;20462;-68
2023/08/04 04:17:45;;;;;;;5.30;5.20;;;14.50;99.90;;;;;;5103800;28;20465;-67
2023/08/04 04:20:12;;;;;;;5.60;5.40;;;14.60;99.90;;;;;;5091957;28;20948;-68
2023/08/04 04:22:39;;;;;;;5.90;5.70;;;14.60;99.90;;;;;;5095978;28;20469;-69
2023/08/04 04:25:06;;;;;;;5.43;5.13;;;14.60;99.90;;;;;;5101851;28;20561;-68
2023/08/04 04:27:34;;;;;;;5.17;5.07;;;14.60;99.90;;;;;;5095162;28;20812;-68
2023/08/04 04:30:02;;;;;;;4.67;4.57;;;14.60;99.90;;;;;;5096552;28;20546;-68
2023/08/04 04:32:30;;;;;;;4.70;4.60;;;14.60;99.90;;;;;;5088644;28;20490;-67
2023/08/04 04:34:58;;;;;;;4.30;4.20;;;14.60;99.90;;;;;;5090637;28;20473;-69
2023/08/04 04:37:25;;;;;;;6.63;6.20;;;14.60;99.90;;;;;;5096140;28;20465;-67
2023/08/04 04:39:52;;;;;;;4.80;4.70;;;14.60;99.90;;;;;;5095070;28;20458;-69
2023/08/04 04:42:34;;;;;;;4.50;4.40;;;14.70;99.90;;;;;;5099573;28;20487;-68
2023/08/04 04:45:01;;;;;;;4.80;4.70;;;14.70;99.90;;;;;;5088743;28;20960;-69
2023/08/04 04:47:30;;;;;;;4.67;4.57;;;14.70;99.90;;;;;;5096721;28;20564;-68
2023/08/04 04:49:57;;;;;;;4.20;4.10;;;14.70;99.90;;;;;;5088250;28;20490;-68
2023/08/04 04:52:31;;;;;;;3.63;3.53;;;14.70;99.90;;;;;;5104566;28;20450;-68
2023/08/04 04:55:00;;;;;;;4.00;3.90;;;14.70;99.90;;;;;;5104697;28;20449;-69
2023/08/04 04:57:27;;;;;;;3.53;3.43;;;14.60;99.90;;;;;;5104727;28;20880;-69
2023/08/04 04:59:55;;;;;;;5.20;5.00;;;14.70;99.90;;;;;;5106098;28;20861;-68
2023/08/04 05:02:22;;;;;;;4.10;4.00;;;14.80;99.90;;;;;;5096648;28;20454;-69
2023/08/04 05:04:51;;;;;;;10.40;4.17;;;14.80;99.90;;;;;;5093013;28;20462;-68
2023/08/04 05:07:18;;;;;;;3.67;3.57;;;14.90;99.90;;;;;;5093827;28;20994;-68
2023/08/04 05:09:45;;;;;;;3.43;3.33;;;14.90;99.90;;;;;;5095222;28;20497;-68
2023/08/04 05:12:11;;;;;;;3.33;3.23;;;15.00;99.90;;;;;;5091848;28;20453;-68
2023/08/04 05:14:40;;;;;;;3.70;3.60;;;14.90;99.90;;;;;;5092573;28;20472;-69
2023/08/04 05:17:07;;;;;;;3.50;3.40;;;15.00;99.90;;;;;;5095320;28;20588;-69
2023/08/04 05:19:35;;;;;;;4.20;4.00;;;15.00;99.90;;;;;;5097646;28;20532;-68
2023/08/04 05:22:04;;;;;;;5.07;4.63;;;15.00;99.90;;;;;;5102964;28;20465;-68
2023/08/04 05:24:33;;;;;;;3.37;3.27;;;15.10;99.90;;;;;;5094674;28;20468;-68
2023/08/04 05:27:01;;;;;;;3.30;3.20;;;15.20;99.90;;;;;;5108765;27;20971;-69
2023/08/04 05:29:28;;;;;;;3.77;3.60;;;15.20;99.90;;;;;;5097143;28;20574;-69
2023/08/04 05:31:55;;;;;;;3.50;3.40;;;15.20;99.90;;;;;;5105615;28;20758;-70
2023/08/04 05:34:22;;;;;;;3.70;3.60;;;15.30;99.90;;;;;;5102053;28;20463;-69
2023/08/04 05:36:49;;;;;;;3.30;3.20;;;15.30;99.90;;;;;;5092912;28;21020;-70
2023/08/04 05:39:17;;;;;;;5.00;4.63;;;15.40;99.90;;;;;;5091308;28;20481;-69
2023/08/04 05:41:45;;;;;;;3.60;3.50;;;15.40;99.90;;;;;;5096149;28;20462;-70
2023/08/04 05:44:13;;;;;;;4.13;4.03;;;15.40;99.90;;;;;;5092867;28;20460;-70
2023/08/04 05:46:39;;;;;;;3.97;3.87;;;15.50;99.90;;;;;;5100294;28;20468;-70
2023/08/04 05:49:07;;;;;;;3.80;3.70;;;15.50;99.90;;;;;;5096964;28;20521;-68
2023/08/04 05:51:34;;;;;;;4.20;4.10;;;15.50;99.90;;;;;;5092376;28;20458;-70
2023/08/04 05:54:03;;;;;;;4.70;4.33;;;15.60;99.90;;;;;;5094613;28;20489;-70
2023/08/04 05:56:31;;;;;;;4.13;4.03;;;15.60;99.90;;;;;;5096436;28;20462;-70
2023/08/04 05:58:58;;;;;;;3.77;3.67;;;15.70;99.90;;;;;;5096850;27;21042;-70
2023/08/04 06:01:27;;;;;;;3.93;3.83;;;15.70;99.90;;;;;;5094705;27;20458;-70
2023/08/04 06:03:54;;;;;;;5.07;4.87;;;15.70;99.90;;;;;;5104522;28;20460;-69
2023/08/04 06:06:22;;;;;;;5.40;5.10;;;15.70;99.90;;;;;;5090487;28;20790;-69
2023/08/04 06:08:48;;;;;;;4.40;4.30;;;15.80;99.90;;;;;;5097664;28;20992;-70
2023/08/04 06:11:15;;;;;;;4.30;4.20;;;15.90;99.90;;;;;;5096057;28;20824;-68
2023/08/04 06:13:43;;;;;;;4.77;4.67;;;15.80;99.90;;;;;;5097665;28;20455;-70
2023/08/04 06:16:10;;;;;;;5.30;5.10;;;15.90;99.90;;;;;;5096431;28;20490;-70
2023/08/04 06:18:39;;;;;;;4.40;4.30;;;15.90;99.90;;;;;;5090173;28;20469;-70
2023/08/04 06:21:05;;;;;;;4.90;4.80;;;15.90;99.90;;;;;;5100422;28;20462;-70
2023/08/04 06:23:34;;;;;;;4.90;4.80;;;16.00;99.90;;;;;;5099782;28;20465;-70
2023/08/04 06:26:01;;;;;;;11.23;7.67;;;16.10;99.90;;;;;;5095165;28;20468;-68
2023/08/04 06:28:27;;;;;;;5.10;5.00;;;16.10;99.90;;;;;;5096162;28;20448;-69
2023/08/04 06:30:55;;;;;;;5.67;5.57;;;16.20;99.90;;;;;;5100467;28;20474;-69
2023/08/04 06:33:23;;;;;;;6.07;5.77;;;16.30;99.90;;;;;;5099266;28;20449;-69
2023/08/04 06:35:50;;;;;;;5.40;5.30;;;16.40;99.90;;;;;;5092791;27;20484;-70
2023/08/04 06:38:16;;;;;;;5.80;5.50;;;16.50;99.90;;;;;;5092293;28;20986;-69
2023/08/04 06:40:44;;;;;;;5.90;5.80;;;16.60;99.90;;;;;;5094115;28;20453;-70
2023/08/04 06:43:11;;;;;;;5.90;5.80;;;16.60;99.90;;;;;;5099592;28;20461;-70
2023/08/04 06:45:38;;;;;;;6.03;5.93;;;16.50;99.90;;;;;;5094108;28;20545;-69
2023/08/04 06:48:06;;;;;;;5.90;5.80;;;16.50;99.90;;;;;;5091427;28;20465;-71
2023/08/04 06:50:33;;;;;;;5.70;5.60;;;16.50;99.90;;;;;;5093337;28;20481;-71
2023/08/04 06:53:00;;;;;;;6.93;6.73;;;16.70;99.90;;;;;;5098049;28;20461;-70
2023/08/04 06:55:27;;;;;;;6.40;6.30;;;16.80;99.90;;;;;;5099351;28;20919;-69
2023/08/04 06:57:54;;;;;;;6.30;6.20;;;17.00;99.90;;;;;;5092581;28;20470;-69
2023/08/04 07:00:21;;;;;;;6.30;6.20;;;16.90;99.90;;;;;;5105505;28;21031;-69
2023/08/04 07:02:50;;;;;;;6.33;6.23;;;17.10;99.90;;;;;;5096912;27;20469;-70
2023/08/04 07:05:18;;;;;;;7.70;7.50;;;17.20;99.90;;;;;;5093139;28;20457;-71
2023/08/04 07:07:46;;;;;;;6.40;6.30;;;17.20;99.90;;;;;;5089364;28;20533;-69
2023/08/04 07:10:13;;;;;;;7.80;7.70;;;17.20;99.90;;;;;;5087118;28;20486;-69
2023/08/04 07:12:41;;;;;;;6.57;6.47;;;17.20;99.90;;;;;;5087855;28;20461;-68
2023/08/04 07:15:09;;;;;;;8.30;8.10;;;17.30;99.90;;;;;;5094365;28;20457;-70
2023/08/04 07:17:36;;;;;;;8.53;8.33;;;17.30;99.90;;;;;;5095737;28;20964;-71
2023/08/04 07:20:03;;;;;;;9.30;9.10;;;17.30;99.90;;;;;;5097158;28;20462;-71
2023/08/04 07:22:32;;;;;;;8.13;7.93;;;17.40;99.90;;;;;;5098493;28;20548;-69
2023/08/04 07:24:59;;;;;;;7.20;7.10;;;17.30;99.90;;;;;;5091539;28;20468;-70
2023/08/04 07:27:26;;;;;;;7.37;7.27;;;17.30;99.90;;;;;;5090641;28;20466;-70
2023/08/04 07:29:53;;;;;;;7.20;7.10;;;17.40;99.90;;;;;;5087688;28;20492;-70
2023/08/04 07:32:19;;;;;;;7.73;7.63;;;17.30;99.90;;;;;;5094972;28;20461;-70
2023/08/04 07:34:47;;;;;;;7.40;7.30;;;17.50;99.90;;;;;;5093399;28;20468;-69
2023/08/04 07:37:13;;;;;;;9.23;9.03;;;17.70;99.90;;;;;;5088718;28;21048;-70
2023/08/04 07:39:41;;;;;;;8.30;8.20;;;17.80;99.90;;;;;;5091995;28;20937;-69
2023/08/04 07:42:08;;;;;;;8.37;8.27;;;17.80;99.90;;;;;;5095076;28;20858;-70
2023/08/04 07:44:35;;;;;;;8.97;8.77;;;17.90;99.90;;;;;;5092248;28;20485;-70
2023/08/04 07:47:04;;;;;;;9.17;8.97;;;18.00;99.90;;;;;;5088357;28;20473;-70
2023/08/04 07:49:30;;;;;;;9.00;8.80;;;18.10;99.90;;;;;;5091217;28;21004;-68
2023/08/04 07:51:58;;;;;;;8.90;8.70;;;18.00;99.90;;;;;;5091381;28;20465;-70
2023/08/04 07:54:25;;;;;;;8.70;8.50;;;17.80;99.90;;;;;;5094846;28;20454;-69
2023/08/04 07:56:53;;;;;;;11.23;10.93;;;18.10;99.90;;;;;;5088137;28;22617;-70
2023/08/04 07:59:20;;;;;;;10.63;10.43;;;18.40;99.90;;;;;;5089208;28;20457;-68
2023/08/04 08:01:47;;;;;;;11.30;11.00;;;18.50;99.90;;;;;;5089688;28;20470;-68
2023/08/04 08:04:14;;;;;;;12.83;12.43;;;18.70;99.90;;;;;;5088691;28;20464;-69
2023/08/04 08:06:41;;;;;;;12.47;12.03;;;18.80;99.90;;;;;;5093373;28;20480;-68
2023/08/04 08:09:08;;;;;;;11.83;11.53;;;18.80;99.90;;;;;;5095142;28;20531;-68
2023/08/04 08:11:35;;;;;;;12.73;12.13;;;18.70;99.90;;;;;;5090217;28;20563;-67
2023/08/04 08:14:03;;;;;;;11.10;10.80;;;18.70;99.90;;;;;;5090676;28;20461;-69
2023/08/04 08:16:30;;;;;;;11.80;11.50;;;18.80;99.90;;;;;;5088180;28;20569;-67
2023/08/04 08:18:57;;;;;;;11.67;11.33;;;19.00;99.90;;;;;;5097535;28;20840;-70
2023/08/04 08:21:24;;;;;;;11.80;11.40;;;19.10;99.90;;;;;;5092336;28;20465;-68
2023/08/04 08:23:51;;;;;;;11.43;11.13;;;19.10;99.90;;;;;;5096508;28;20458;-68
2023/08/04 08:26:17;;;;;;;11.70;11.40;;;19.10;99.90;;;;;;5097445;28;20453;-69
2023/08/04 08:28:44;;;;;;;11.87;11.57;;;19.10;99.90;;;;;;5087578;28;20462;-68
2023/08/04 08:31:12;;;;;;;11.10;10.80;;;19.20;99.90;;;;;;5090553;28;20513;-69
2023/08/04 08:33:40;;;;;;;10.70;10.43;;;19.30;99.90;;;;;;5092057;28;20477;-69
2023/08/04 08:36:08;;;;;;;10.90;10.60;;;19.30;99.90;;;;;;5091590;28;20496;-69
2023/08/04 08:38:36;;;;;;;11.60;11.30;;;19.30;99.90;;;;;;5089581;28;20473;-69
2023/08/04 08:41:03;;;;;;;11.47;11.17;;;19.20;99.90;;;;;;5094473;28;20539;-70
2023/08/04 08:43:31;;;;;;;10.73;10.47;;;19.30;99.90;;;;;;5092924;28;20466;-69
2023/08/04 08:45:59;;;;;;;11.57;11.00;;;19.20;99.90;;;;;;5091285;28;20452;-68
2023/08/04 08:48:29;;;;;;;11.37;11.07;;;19.10;99.90;;;;;;5090887;28;20540;-68
2023/08/04 08:51:01;;;;;;;10.83;10.57;;;19.00;99.90;;;;;;5096064;28;20488;-68
2023/08/04 08:53:31;;;;;;;10.90;10.60;;;19.00;99.90;;;;;;5097226;28;20485;-68
2023/08/04 08:56:01;;;;;;;10.20;10.00;;;19.10;99.90;;;;;;5090543;28;20462;-68
2023/08/04 08:58:30;;;;;;;11.43;11.13;;;19.80;99.90;;;;;;5091132;28;20454;-69
2023/08/04 09:00:57;;;;;;;13.47;13.07;;;20.60;99.90;;;;;;5093927;28;20453;-70
2023/08/04 09:03:24;;;;;;;12.30;11.90;;;21.30;99.90;;;;;;5088907;28;21036;-70
2023/08/04 09:05:53;;;;;;;12.80;12.40;;;21.60;99.90;;;;;;5087432;28;20493;-71
2023/08/04 09:08:19;;;;;;;12.70;12.30;;;21.80;99.90;;;;;;5094667;28;20478;-69
2023/08/04 09:10:47;;;;;;;12.50;12.20;;;22.00;99.90;;;;;;5089050;28;20478;-70
2023/08/04 09:13:15;;;;;;;12.40;12.10;;;22.80;99.90;;;;;;5095299;28;20469;-71
2023/08/04 09:15:48;;;;;;;13.30;12.90;;;23.50;99.90;;;;;;5093888;28;20480;-68
2023/08/04 09:18:26;;;;;;;13.40;13.00;;;24.00;99.90;;;;;;5088626;28;20465;-69
2023/08/04 09:21:12;;;;;;;13.50;13.10;;;24.00;99.90;;;;;;5089099;28;20458;-69
2023/08/04 09:23:43;;;;;;;14.00;13.50;;;23.90;99.90;;;;;;5085754;28;20934;-69
2023/08/04 09:26:10;;;;;;;14.13;13.63;;;23.30;99.90;;;;;;5092041;28;20462;-69
2023/08/04 09:28:37;;;;;;;13.60;13.20;;;23.10;99.90;;;;;;5090547;28;20507;-69
2023/08/04 09:31:05;;;;;;;14.03;13.53;;;23.20;99.90;;;;;;5089975;28;20524;-69
2023/08/04 09:33:34;;;;;;;14.27;13.77;;;23.40;99.90;;;;;;5085466;28;21046;-69
2023/08/04 09:36:06;;;;;;;13.97;13.47;;;23.30;99.90;;;;;;5092566;28;20458;-71
2023/08/04 09:38:34;;;;;;;14.50;14.00;;;23.10;99.90;;;;;;5103995;28;20453;-69
2023/08/04 09:41:01;;;;;;;14.03;13.53;;;23.10;99.90;;;;;;5101734;28;20533;-69
2023/08/04 09:43:28;;;;;;;14.47;13.97;;;23.40;99.90;;;;;;5095709;28;20972;-68
2023/08/04 09:45:59;;;;;;;14.20;13.70;;;23.40;99.90;;;;;;5099204;28;20441;-69
2023/08/04 09:48:27;;;;;;;14.83;14.33;;;23.90;99.90;;;;;;5092756;28;20454;-69
2023/08/04 09:51:07;;;;;;;14.37;13.87;;;24.00;99.90;;;;;;5088332;28;20608;-68
2023/08/04 09:53:37;;;;;;;14.33;13.83;;;24.30;99.90;;;;;;5095616;28;20466;-68
2023/08/04 09:56:04;;;;;;;14.20;13.70;;;24.20;99.90;;;;;;5091305;28;20450;-68
2023/08/04 09:58:32;;;;;;;14.03;13.53;;;24.20;99.90;;;;;;5091138;28;20473;-70
2023/08/04 10:00:59;;;;;;;14.27;13.77;;;24.40;99.90;;;;;;5099418;28;20526;-69
2023/08/04 10:03:26;;;;;;;14.53;14.03;;;25.10;99.90;;;;;;5101939;28;20500;-70
2023/08/04 10:05:55;;;;;;;14.73;14.23;;;26.10;99.90;;;;;;5093681;28;20497;-67
2023/08/04 10:08:25;;;;;;;13.97;13.47;;;26.60;99.90;;;;;;5091618;28;21036;-69
2023/08/04 10:10:54;;;;;;;14.70;14.20;;;26.80;99.90;;;;;;5090713;28;20489;-69
2023/08/04 10:13:22;;;;;;;15.40;14.80;;;27.20;99.90;;;;;;5099637;28;20458;-67
2023/08/04 10:15:49;;;;;;;15.30;14.70;;;27.20;99.90;;;;;;5103499;28;21072;-69
2023/08/04 10:18:15;;;;;;;15.10;14.60;;;26.90;99.90;;;;;;5098637;28;20485;-71
2023/08/04 10:20:43;;;;;;;15.73;15.13;;;26.50;99.90;;;;;;5092055;28;20462;-71
2023/08/04 10:23:12;;;;;;;15.57;14.97;;;25.90;99.90;;;;;;5094118;28;20446;-69
2023/08/04 10:25:53;;;;;;;14.80;14.30;;;25.20;99.90;;;;;;5091127;28;20458;-70
2023/08/04 10:28:19;;;;;;;14.63;14.13;;;23.90;99.90;;;;;;5095634;28;20464;-68
2023/08/04 10:30:46;;;;;;;14.50;14.00;;;23.00;99.90;;;;;;5105428;28;21053;-69
2023/08/04 10:33:13;;;;;;;14.80;14.30;;;22.80;99.90;;;;;;5099660;28;20476;-69
2023/08/04 10:36:05;;;;;;;14.83;14.33;;;22.30;99.90;;;;;;5091737;28;20470;-69
2023/08/04 10:38:46;;;;;;;14.40;13.90;;;22.40;99.90;;;;;;5092392;28;20817;-69
2023/08/04 10:41:15;;;;;;;14.37;13.87;;;22.80;99.90;;;;;;5092635;28;20560;-70
2023/08/04 10:43:41;;;;;;;14.20;13.70;;;23.00;99.90;;;;;;5095511;28;20453;-70
2023/08/04 10:46:12;;;;;;;14.23;13.73;;;23.20;99.90;;;;;;5096884;28;20464;-71
2023/08/04 10:48:40;;;;;;;14.67;14.17;;;23.40;99.90;;;;;;5095136;28;20960;-72
2023/08/04 10:51:09;;;;;;;14.50;14.00;;;23.50;99.90;;;;;;5085435;28;20493;-70
2023/08/04 10:53:36;;;;;;;14.60;14.10;;;23.50;99.90;;;;;;5094281;28;20453;-70
2023/08/04 10:56:07;;;;;;;13.37;12.97;;;23.50;99.90;;;;;;5093591;28;20454;-70
2023/08/04 10:58:35;;;;;;;13.83;13.43;;;24.20;99.90;;;;;;5088812;28;20925;-70
2023/08/04 11:01:02;;;;;;;14.17;13.67;;;25.60;99.90;;;;;;5089619;28;20466;-70
2023/08/04 11:03:33;;;;;;;14.70;14.20;;;26.40;99.90;;;;;;5091218;28;20453;-68
2023/08/04 11:06:00;;;;;;;15.10;14.60;;;27.10;99.90;;;;;;5095525;28;20477;-69
2023/08/04 11:08:27;;;;;;;14.30;13.80;;;26.80;99.90;;;;;;5096586;27;21043;-69
2023/08/04 11:10:55;;;;;;;14.83;14.33;;;26.30;99.90;;;;;;5091757;28;20489;-69
2023/08/04 11:13:23;;;;;;;15.40;14.90;;;26.80;99.90;;;;;;5096029;28;20460;-69
2023/08/04 11:15:53;;;;;;;16.07;15.47;;;26.70;99.90;;;;;;5098044;28;21003;-69
2023/08/04 11:18:23;;;;;;;15.47;14.97;;;26.00;99.90;;;;;;5092552;28;20561;-69
2023/08/04 11:20:51;;;;;;;15.40;14.90;;;25.80;99.90;;;;;;5092114;28;20457;-70
2023/08/04 11:23:24;;;;;;;15.30;14.80;;;25.00;99.90;;;;;;5087478;28;20453;-71
2023/08/04 11:25:53;;;;;;;14.50;14.00;;;24.40;99.90;;;;;;5089217;28;20454;-69
2023/08/04 11:28:21;;;;;;;14.50;14.00;;;24.00;99.90;;;;;;5093621;28;20609;-69
2023/08/04 11:30:48;;;;;;;14.77;14.27;;;24.30;99.90;;;;;;5099117;28;20488;-69
2023/08/04 11:33:17;;;;;;;14.60;14.10;;;24.60;99.90;;;;;;5100150;28;20460;-70
2023/08/04 11:35:45;;;;;;;15.37;14.87;;;24.90;99.90;;;;;;5097350;28;20484;-70
2023/08/04 11:38:12;;;;;;;14.87;14.37;;;25.40;99.90;;;;;;5092595;28;20469;-67
2023/08/04 11:40:55;;;;;;;14.83;14.33;;;25.70;99.90;;;;;;5099082;28;20458;-70
2023/08/04 11:43:22;;;;;;;13.97;13.57;;;25.30;99.90;;;;;;5095304;28;20844;-69
2023/08/04 11:45:49;;;;;;;14.40;13.93;;;25.70;99.90;;;;;;5086043;28;20458;-68
2023/08/04 11:48:18;;;;;;;15.10;14.60;;;26.10;99.90;;;;;;5094281;28;20454;-68
2023/08/04 11:50:47;;;;;;;15.30;14.80;;;26.50;99.90;;;;;;5091291;28;20481;-69
2023/08/04 11:53:16;;;;;;;15.60;15.10;;;26.60;99.90;;;;;;5085012;28;20470;-67
2023/08/04 11:55:57;;;;;;;15.43;14.93;;;26.40;99.90;;;;;;5100645;28;20928;-69
2023/08/04 11:58:35;;;;;;;16.23;15.63;;;25.50;99.90;;;;;;5092311;28;20457;-67
2023/08/04 12:01:03;;;;;;;15.80;15.20;;;25.00;99.90;;;;;;5091841;28;20442;-68
2023/08/04 12:03:45;;;;;;;15.30;14.80;;;24.90;99.90;;;;;;5088859;28;20923;-69
2023/08/04 12:06:17;;;;;;;15.00;14.50;;;24.90;99.90;;;;;;5099064;28;20466;-67
2023/08/04 12:08:52;;;;;;;15.23;14.73;;;24.90;99.90;;;;;;5095820;27;20883;-68
2023/08/04 12:11:20;;;;;;;15.23;14.73;;;25.20;99.90;;;;;;5088542;28;20520;-70
2023/08/04 12:13:47;;;;;;;16.20;15.60;;;25.90;99.90;;;;;;5088302;28;20466;-68
2023/08/04 12:16:16;;;;;;;16.00;15.40;;;26.20;99.90;;;;;;5094267;28;20484;-70
2023/08/04 12:18:47;;;;;;;15.27;14.77;;;26.10;99.90;;;;;;5101278;28;20551;-68
2023/08/04 12:21:17;;;;;;;16.00;15.40;;;25.90;99.90;;;;;;5096583;28;20556;-68
2023/08/04 12:23:48;;;;;;;15.67;15.17;;;25.90;99.90;;;;;;5102277;28;20543;-69
2023/08/04 12:26:15;;;;;;;15.50;15.00;;;26.00;99.90;;;;;;5089527;28;20843;-70
2023/08/04 12:28:42;;;;;;;16.03;15.43;;;26.50;99.90;;;;;;5092265;28;20461;-69
2023/08/04 12:31:09;;;;;;;16.83;16.23;;;27.10;99.90;;;;;;5089382;28;20511;-70
2023/08/04 12:33:35;;;;;;;15.73;15.23;;;27.80;99.90;;;;;;5089911;28;20552;-70
2023/08/04 12:36:04;;;;;;;15.77;15.27;;;28.70;99.90;;;;;;5091493;28;20458;-69
2023/08/04 12:38:31;;;;;;;15.70;15.20;;;28.80;99.90;;;;;;5105695;28;20448;-71
2023/08/04 12:40:59;;;;;;;15.93;15.33;;;28.60;99.90;;;;;;5098592;28;20457;-71
2023/08/04 12:43:26;;;;;;;16.00;15.40;;;29.30;99.90;;;;;;5096550;28;20476;-70